sensor_id;sensor_type;location;lat;lon;timestamp;P1;durP1;ratioP1;P2;durP2;ratioP2
16977;SDS011;8605;52.548;4.918;2023-09-12T00:02:32;34.47;;;19.83;;
16977;SDS011;8605;52.548;4.918;2023-09-12T00:07:37;34.42;;;20.25;;
16977;SDS011;8605;52.548;4.918;2023-09-12T00:12:41;30.45;;;18.10;;
16977;SDS011;8605;52.548;4.918;2023-09-12T00:17:44;28.35;;;18.77;;
16977;SDS011;8605;52.548;4.918;2023-09-12T00:22:49;28.50;;;19.13;;
16977;SDS011;8605;52.548;4.918;2023-09-12T00:27:52;28.03;;;17.47;;
16977;SDS011;8605;52.548;4.918;2023-09-12T00:32:55;27.60;;;17.92;;
16977;SDS011;8605;52.548;4.918;2023-09-12T00:38:00;27.70;;;17.98;;
16977;SDS011;8605;52.548;4.918;2023-09-12T00:43:03;29.50;;;18.70;;
16977;SDS011;8605;52.548;4.918;2023-09-12T00:48:06;30.70;;;19.08;;
16977;SDS011;8605;52.548;4.918;2023-09-12T00:53:11;26.95;;;18.75;;
16977;SDS011;8605;52.548;4.918;2023-09-12T00:58:15;30.83;;;19.50;;
16977;SDS011;8605;52.548;4.918;2023-09-12T01:03:18;29.17;;;18.70;;
16977;SDS011;8605;52.548;4.918;2023-09-12T01:08:22;31.52;;;19.20;;
16977;SDS011;8605;52.548;4.918;2023-09-12T01:13:25;30.35;;;19.58;;
16977;SDS011;8605;52.548;4.918;2023-09-12T01:18:28;29.42;;;18.55;;
16977;SDS011;8605;52.548;4.918;2023-09-12T01:23:36;33.83;;;21.87;;
16977;SDS011;8605;52.548;4.918;2023-09-12T01:28:48;35.47;;;20.60;;
16977;SDS011;8605;52.548;4.918;2023-09-12T01:33:57;31.23;;;19.27;;
16977;SDS011;8605;52.548;4.918;2023-09-12T01:39:00;29.50;;;18.60;;
16977;SDS011;8605;52.548;4.918;2023-09-12T01:44:05;25.33;;;17.08;;
16977;SDS011;8605;52.548;4.918;2023-09-12T01:49:09;28.17;;;19.30;;
16977;SDS011;8605;52.548;4.918;2023-09-12T01:54:12;30.63;;;18.67;;
16977;SDS011;8605;52.548;4.918;2023-09-12T01:59:18;32.47;;;20.48;;
16977;SDS011;8605;52.548;4.918;2023-09-12T02:04:22;32.70;;;19.35;;
16977;SDS011;8605;52.548;4.918;2023-09-12T02:09:24;32.20;;;19.58;;
16977;SDS011;8605;52.548;4.918;2023-09-12T02:14:29;31.73;;;19.27;;
16977;SDS011;8605;52.548;4.918;2023-09-12T02:19:32;32.70;;;21.13;;
16977;SDS011;8605;52.548;4.918;2023-09-12T02:24:35;33.03;;;19.60;;
16977;SDS011;8605;52.548;4.918;2023-09-12T02:29:39;36.13;;;21.42;;
16977;SDS011;8605;52.548;4.918;2023-09-12T02:34:43;35.05;;;21.33;;
16977;SDS011;8605;52.548;4.918;2023-09-12T02:39:46;34.13;;;20.70;;
16977;SDS011;8605;52.548;4.918;2023-09-12T02:44:50;33.85;;;22.63;;
16977;SDS011;8605;52.548;4.918;2023-09-12T02:49:54;37.90;;;22.40;;
16977;SDS011;8605;52.548;4.918;2023-09-12T02:54:57;37.05;;;22.13;;
16977;SDS011;8605;52.548;4.918;2023-09-12T03:00:02;36.05;;;21.80;;
16977;SDS011;8605;52.548;4.918;2023-09-12T03:05:08;41.25;;;23.27;;
16977;SDS011;8605;52.548;4.918;2023-09-12T03:10:11;40.17;;;25.00;;
16977;SDS011;8605;52.548;4.918;2023-09-12T03:15:15;41.57;;;23.43;;
16977;SDS011;8605;52.548;4.918;2023-09-12T03:20:19;38.80;;;22.80;;
16977;SDS011;8605;52.548;4.918;2023-09-12T03:25:22;40.30;;;23.10;;
16977;SDS011;8605;52.548;4.918;2023-09-12T03:30:27;39.67;;;22.73;;
16977;SDS011;8605;52.548;4.918;2023-09-12T03:35:30;38.30;;;22.80;;
16977;SDS011;8605;52.548;4.918;2023-09-12T03:40:34;39.67;;;22.37;;
16977;SDS011;8605;52.548;4.918;2023-09-12T03:45:39;38.38;;;22.00;;
16977;SDS011;8605;52.548;4.918;2023-09-12T03:50:44;40.83;;;23.17;;
16977;SDS011;8605;52.548;4.918;2023-09-12T03:55:47;34.92;;;21.02;;
16977;SDS011;8605;52.548;4.918;2023-09-12T04:00:51;41.92;;;24.08;;
16977;SDS011;8605;52.548;4.918;2023-09-12T04:05:54;43.85;;;24.13;;
16977;SDS011;8605;52.548;4.918;2023-09-12T04:10:57;37.50;;;21.40;;
16977;SDS011;8605;52.548;4.918;2023-09-12T04:16:02;38.13;;;20.50;;
16977;SDS011;8605;52.548;4.918;2023-09-12T04:21:05;40.30;;;23.55;;
16977;SDS011;8605;52.548;4.918;2023-09-12T04:26:08;33.40;;;19.97;;
16977;SDS011;8605;52.548;4.918;2023-09-12T04:31:13;33.83;;;20.90;;
16977;SDS011;8605;52.548;4.918;2023-09-12T04:36:16;38.38;;;21.85;;
16977;SDS011;8605;52.548;4.918;2023-09-12T04:41:19;34.95;;;19.60;;
16977;SDS011;8605;52.548;4.918;2023-09-12T04:46:24;40.75;;;21.35;;
16977;SDS011;8605;52.548;4.918;2023-09-12T04:51:27;39.47;;;21.33;;
16977;SDS011;8605;52.548;4.918;2023-09-12T04:56:30;35.75;;;20.17;;
16977;SDS011;8605;52.548;4.918;2023-09-12T05:01:34;42.05;;;24.33;;
16977;SDS011;8605;52.548;4.918;2023-09-12T05:06:38;34.20;;;20.40;;
16977;SDS011;8605;52.548;4.918;2023-09-12T05:11:41;35.83;;;20.80;;
16977;SDS011;8605;52.548;4.918;2023-09-12T05:16:47;33.10;;;18.67;;
16977;SDS011;8605;52.548;4.918;2023-09-12T05:21:50;32.37;;;19.47;;
16977;SDS011;8605;52.548;4.918;2023-09-12T05:26:53;33.03;;;18.45;;
16977;SDS011;8605;52.548;4.918;2023-09-12T05:31:57;35.58;;;18.33;;
16977;SDS011;8605;52.548;4.918;2023-09-12T05:37:01;34.97;;;20.93;;
16977;SDS011;8605;52.548;4.918;2023-09-12T05:42:05;41.13;;;21.73;;
16977;SDS011;8605;52.548;4.918;2023-09-12T05:47:09;35.80;;;19.35;;
16977;SDS011;8605;52.548;4.918;2023-09-12T05:52:13;38.45;;;22.08;;
16977;SDS011;8605;52.548;4.918;2023-09-12T05:57:16;41.15;;;21.30;;
16977;SDS011;8605;52.548;4.918;2023-09-12T06:02:21;36.70;;;21.77;;
16977;SDS011;8605;52.548;4.918;2023-09-12T06:07:24;36.15;;;21.73;;
16977;SDS011;8605;52.548;4.918;2023-09-12T06:12:27;34.90;;;20.58;;
16977;SDS011;8605;52.548;4.918;2023-09-12T06:17:31;35.90;;;19.43;;
16977;SDS011;8605;52.548;4.918;2023-09-12T06:22:35;41.17;;;24.17;;
16977;SDS011;8605;52.548;4.918;2023-09-12T06:27:38;34.40;;;19.45;;
16977;SDS011;8605;52.548;4.918;2023-09-12T06:32:42;36.63;;;19.00;;
16977;SDS011;8605;52.548;4.918;2023-09-12T06:37:45;39.67;;;22.23;;
16977;SDS011;8605;52.548;4.918;2023-09-12T06:42:48;45.40;;;26.00;;
16977;SDS011;8605;52.548;4.918;2023-09-12T06:47:53;33.88;;;20.48;;
16977;SDS011;8605;52.548;4.918;2023-09-12T06:52:56;40.22;;;22.48;;
16977;SDS011;8605;52.548;4.918;2023-09-12T06:57:59;35.63;;;19.13;;
16977;SDS011;8605;52.548;4.918;2023-09-12T07:03:03;34.30;;;18.75;;
16977;SDS011;8605;52.548;4.918;2023-09-12T07:08:07;48.53;;;22.60;;
16977;SDS011;8605;52.548;4.918;2023-09-12T07:13:10;44.83;;;21.97;;
16977;SDS011;8605;52.548;4.918;2023-09-12T07:18:15;49.78;;;23.05;;
16977;SDS011;8605;52.548;4.918;2023-09-12T07:23:18;51.60;;;23.38;;
16977;SDS011;8605;52.548;4.918;2023-09-12T07:28:20;46.23;;;21.53;;
16977;SDS011;8605;52.548;4.918;2023-09-12T07:33:25;40.75;;;21.15;;
16977;SDS011;8605;52.548;4.918;2023-09-12T07:38:28;46.73;;;22.17;;
16977;SDS011;8605;52.548;4.918;2023-09-12T07:43:32;31.25;;;16.38;;
16977;SDS011;8605;52.548;4.918;2023-09-12T07:48:36;41.80;;;21.33;;
16977;SDS011;8605;52.548;4.918;2023-09-12T07:53:39;40.83;;;21.35;;
16977;SDS011;8605;52.548;4.918;2023-09-12T07:58:43;40.20;;;20.35;;
16977;SDS011;8605;52.548;4.918;2023-09-12T08:03:47;47.53;;;22.42;;
16977;SDS011;8605;52.548;4.918;2023-09-12T08:08:51;35.83;;;20.00;;
16977;SDS011;8605;52.548;4.918;2023-09-12T08:13:54;45.67;;;23.98;;
16977;SDS011;8605;52.548;4.918;2023-09-12T08:19:00;32.63;;;18.17;;
16977;SDS011;8605;52.548;4.918;2023-09-12T08:24:03;43.03;;;21.17;;
16977;SDS011;8605;52.548;4.918;2023-09-12T08:29:07;39.77;;;20.60;;
16977;SDS011;8605;52.548;4.918;2023-09-12T08:34:11;34.50;;;19.35;;
16977;SDS011;8605;52.548;4.918;2023-09-12T08:39:16;41.15;;;19.88;;
16977;SDS011;8605;52.548;4.918;2023-09-12T08:44:20;35.55;;;20.05;;
16977;SDS011;8605;52.548;4.918;2023-09-12T08:49:25;31.23;;;18.50;;
16977;SDS011;8605;52.548;4.918;2023-09-12T08:54:30;40.05;;;20.60;;
16977;SDS011;8605;52.548;4.918;2023-09-12T08:59:33;32.13;;;17.77;;
16977;SDS011;8605;52.548;4.918;2023-09-12T09:04:38;28.27;;;15.05;;
16977;SDS011;8605;52.548;4.918;2023-09-12T09:09:42;32.73;;;17.23;;
16977;SDS011;8605;52.548;4.918;2023-09-12T09:14:46;24.73;;;13.70;;
16977;SDS011;8605;52.548;4.918;2023-09-12T09:19:50;25.45;;;14.93;;
16977;SDS011;8605;52.548;4.918;2023-09-12T09:25:00;25.88;;;16.88;;
16977;SDS011;8605;52.548;4.918;2023-09-12T09:30:12;30.40;;;16.85;;
16977;SDS011;8605;52.548;4.918;2023-09-12T09:35:17;31.73;;;17.52;;
16977;SDS011;8605;52.548;4.918;2023-09-12T09:40:21;31.02;;;17.83;;
16977;SDS011;8605;52.548;4.918;2023-09-12T09:45:25;26.17;;;16.50;;
16977;SDS011;8605;52.548;4.918;2023-09-12T09:50:29;25.98;;;15.52;;
16977;SDS011;8605;52.548;4.918;2023-09-12T09:55:32;21.63;;;13.88;;
16977;SDS011;8605;52.548;4.918;2023-09-12T10:00:36;26.07;;;16.00;;
16977;SDS011;8605;52.548;4.918;2023-09-12T10:05:41;25.20;;;15.70;;
16977;SDS011;8605;52.548;4.918;2023-09-12T10:10:44;27.65;;;18.10;;
16977;SDS011;8605;52.548;4.918;2023-09-12T10:15:48;27.90;;;16.23;;
16977;SDS011;8605;52.548;4.918;2023-09-12T10:20:54;27.87;;;16.67;;
16977;SDS011;8605;52.548;4.918;2023-09-12T10:25:58;25.50;;;15.55;;
16977;SDS011;8605;52.548;4.918;2023-09-12T10:31:01;27.52;;;15.02;;
16977;SDS011;8605;52.548;4.918;2023-09-12T10:36:08;22.90;;;13.70;;
16977;SDS011;8605;52.548;4.918;2023-09-12T10:41:11;27.20;;;17.58;;
16977;SDS011;8605;52.548;4.918;2023-09-12T10:46:16;26.35;;;15.73;;
16977;SDS011;8605;52.548;4.918;2023-09-12T10:51:21;25.45;;;15.00;;
16977;SDS011;8605;52.548;4.918;2023-09-12T10:56:24;27.23;;;16.70;;
16977;SDS011;8605;52.548;4.918;2023-09-12T11:01:33;21.73;;;14.95;;
16977;SDS011;8605;52.548;4.918;2023-09-12T11:06:38;19.87;;;12.00;;
16977;SDS011;8605;52.548;4.918;2023-09-12T11:11:41;20.83;;;13.90;;
16977;SDS011;8605;52.548;4.918;2023-09-12T11:22:24;13.68;;;9.00;;
16977;SDS011;8605;52.548;4.918;2023-09-12T11:27:30;15.83;;;10.37;;
16977;SDS011;8605;52.548;4.918;2023-09-12T11:32:35;16.63;;;10.30;;
16977;SDS011;8605;52.548;4.918;2023-09-12T11:37:40;11.87;;;9.00;;
16977;SDS011;8605;52.548;4.918;2023-09-12T11:42:50;13.48;;;7.97;;
16977;SDS011;8605;52.548;4.918;2023-09-12T11:47:53;14.57;;;8.50;;
16977;SDS011;8605;52.548;4.918;2023-09-12T11:53:02;9.10;;;6.43;;
16977;SDS011;8605;52.548;4.918;2023-09-12T11:58:06;10.23;;;7.47;;
16977;SDS011;8605;52.548;4.918;2023-09-12T12:03:09;9.57;;;6.83;;
16977;SDS011;8605;52.548;4.918;2023-09-12T12:08:14;9.50;;;6.93;;
16977;SDS011;8605;52.548;4.918;2023-09-12T12:13:32;10.83;;;7.50;;
16977;SDS011;8605;52.548;4.918;2023-09-12T12:18:35;8.10;;;4.83;;
16977;SDS011;8605;52.548;4.918;2023-09-12T12:23:40;8.45;;;4.20;;
16977;SDS011;8605;52.548;4.918;2023-09-12T12:28:43;7.22;;;4.47;;
16977;SDS011;8605;52.548;4.918;2023-09-12T12:33:50;6.85;;;5.20;;
16977;SDS011;8605;52.548;4.918;2023-09-12T12:39:16;4.60;;;3.65;;
16977;SDS011;8605;52.548;4.918;2023-09-12T12:44:19;5.95;;;3.60;;
16977;SDS011;8605;52.548;4.918;2023-09-12T12:49:22;9.25;;;3.63;;
16977;SDS011;8605;52.548;4.918;2023-09-12T12:54:31;6.38;;;3.53;;
16977;SDS011;8605;52.548;4.918;2023-09-12T12:59:34;3.55;;;2.63;;
16977;SDS011;8605;52.548;4.918;2023-09-12T13:04:38;4.10;;;2.90;;
16977;SDS011;8605;52.548;4.918;2023-09-12T13:09:42;3.53;;;2.70;;
16977;SDS011;8605;52.548;4.918;2023-09-12T13:14:45;5.43;;;3.10;;
16977;SDS011;8605;52.548;4.918;2023-09-12T13:19:48;6.38;;;3.35;;
16977;SDS011;8605;52.548;4.918;2023-09-12T13:24:53;4.47;;;3.40;;
16977;SDS011;8605;52.548;4.918;2023-09-12T13:29:55;5.33;;;3.30;;
16977;SDS011;8605;52.548;4.918;2023-09-12T13:35:01;4.70;;;2.53;;
16977;SDS011;8605;52.548;4.918;2023-09-12T13:40:06;3.80;;;2.90;;
16977;SDS011;8605;52.548;4.918;2023-09-12T13:45:10;3.53;;;3.03;;
16977;SDS011;8605;52.548;4.918;2023-09-12T13:50:13;3.28;;;2.70;;
16977;SDS011;8605;52.548;4.918;2023-09-12T13:55:18;5.32;;;3.20;;
16977;SDS011;8605;52.548;4.918;2023-09-12T14:00:41;5.57;;;2.85;;
16977;SDS011;8605;52.548;4.918;2023-09-12T14:05:44;3.35;;;1.95;;
16977;SDS011;8605;52.548;4.918;2023-09-12T14:10:50;6.37;;;2.87;;
16977;SDS011;8605;52.548;4.918;2023-09-12T14:15:54;3.00;;;2.50;;
16977;SDS011;8605;52.548;4.918;2023-09-12T14:20:58;6.30;;;3.33;;
16977;SDS011;8605;52.548;4.918;2023-09-12T14:26:03;4.60;;;3.60;;
16977;SDS011;8605;52.548;4.918;2023-09-12T14:31:08;4.70;;;3.80;;
16977;SDS011;8605;52.548;4.918;2023-09-12T14:36:15;4.75;;;3.42;;
16977;SDS011;8605;52.548;4.918;2023-09-12T14:41:20;5.17;;;3.73;;
16977;SDS011;8605;52.548;4.918;2023-09-12T14:46:23;9.10;;;4.45;;
16977;SDS011;8605;52.548;4.918;2023-09-12T14:51:26;3.30;;;2.75;;
16977;SDS011;8605;52.548;4.918;2023-09-12T14:56:35;3.85;;;3.00;;
16977;SDS011;8605;52.548;4.918;2023-09-12T15:01:38;4.20;;;2.50;;
16977;SDS011;8605;52.548;4.918;2023-09-12T15:06:41;3.63;;;3.10;;
16977;SDS011;8605;52.548;4.918;2023-09-12T15:11:47;4.65;;;3.13;;
16977;SDS011;8605;52.548;4.918;2023-09-12T15:16:50;3.60;;;2.80;;
16977;SDS011;8605;52.548;4.918;2023-09-12T15:21:53;4.07;;;2.77;;
16977;SDS011;8605;52.548;4.918;2023-09-12T15:26:58;3.10;;;2.60;;
16977;SDS011;8605;52.548;4.918;2023-09-12T15:32:01;5.77;;;2.63;;
16977;SDS011;8605;52.548;4.918;2023-09-12T15:37:09;3.97;;;2.60;;
16977;SDS011;8605;52.548;4.918;2023-09-12T15:42:17;3.80;;;2.90;;
16977;SDS011;8605;52.548;4.918;2023-09-12T15:47:37;16.45;;;7.60;;
16977;SDS011;8605;52.548;4.918;2023-09-12T15:52:41;6.50;;;3.08;;
16977;SDS011;8605;52.548;4.918;2023-09-12T15:57:45;4.20;;;3.13;;
16977;SDS011;8605;52.548;4.918;2023-09-12T16:02:49;4.45;;;3.30;;
16977;SDS011;8605;52.548;4.918;2023-09-12T16:07:54;3.90;;;3.35;;
16977;SDS011;8605;52.548;4.918;2023-09-12T16:12:59;4.65;;;2.88;;
16977;SDS011;8605;52.548;4.918;2023-09-12T16:18:02;4.38;;;3.20;;
16977;SDS011;8605;52.548;4.918;2023-09-12T16:23:05;3.60;;;3.03;;
16977;SDS011;8605;52.548;4.918;2023-09-12T16:28:09;3.25;;;2.95;;
16977;SDS011;8605;52.548;4.918;2023-09-12T16:33:12;6.53;;;3.60;;
16977;SDS011;8605;52.548;4.918;2023-09-12T16:38:16;3.63;;;2.70;;
16977;SDS011;8605;52.548;4.918;2023-09-12T16:43:20;3.40;;;3.00;;
16977;SDS011;8605;52.548;4.918;2023-09-12T16:48:23;5.55;;;4.07;;
16977;SDS011;8605;52.548;4.918;2023-09-12T16:53:26;5.17;;;3.33;;
16977;SDS011;8605;52.548;4.918;2023-09-12T16:58:30;5.55;;;3.75;;
16977;SDS011;8605;52.548;4.918;2023-09-12T17:03:34;5.23;;;3.83;;
16977;SDS011;8605;52.548;4.918;2023-09-12T17:08:37;3.53;;;3.10;;
16977;SDS011;8605;52.548;4.918;2023-09-12T17:13:41;3.67;;;2.90;;
16977;SDS011;8605;52.548;4.918;2023-09-12T17:18:45;3.50;;;3.17;;
16977;SDS011;8605;52.548;4.918;2023-09-12T17:23:48;4.18;;;3.60;;
16977;SDS011;8605;52.548;4.918;2023-09-12T17:28:52;3.45;;;2.92;;
16977;SDS011;8605;52.548;4.918;2023-09-12T17:33:55;4.90;;;2.83;;
16977;SDS011;8605;52.548;4.918;2023-09-12T17:38:58;3.30;;;2.72;;
16977;SDS011;8605;52.548;4.918;2023-09-12T17:44:03;4.40;;;2.70;;
16977;SDS011;8605;52.548;4.918;2023-09-12T17:49:07;4.53;;;2.67;;
16977;SDS011;8605;52.548;4.918;2023-09-12T17:54:10;4.85;;;3.08;;
16977;SDS011;8605;52.548;4.918;2023-09-12T17:59:14;4.97;;;3.58;;
16977;SDS011;8605;52.548;4.918;2023-09-12T18:04:17;3.40;;;2.63;;
16977;SDS011;8605;52.548;4.918;2023-09-12T18:09:20;9.65;;;4.00;;
16977;SDS011;8605;52.548;4.918;2023-09-12T18:14:24;3.40;;;2.70;;
16977;SDS011;8605;52.548;4.918;2023-09-12T18:19:27;5.20;;;2.90;;
16977;SDS011;8605;52.548;4.918;2023-09-12T18:24:32;3.90;;;3.10;;
16977;SDS011;8605;52.548;4.918;2023-09-12T18:29:36;3.50;;;2.63;;
16977;SDS011;8605;52.548;4.918;2023-09-12T18:34:39;4.18;;;2.80;;
16977;SDS011;8605;52.548;4.918;2023-09-12T18:39:42;2.63;;;2.23;;
16977;SDS011;8605;52.548;4.918;2023-09-12T18:44:46;8.20;;;2.67;;
16977;SDS011;8605;52.548;4.918;2023-09-12T18:49:49;3.30;;;2.25;;
16977;SDS011;8605;52.548;4.918;2023-09-12T18:54:52;2.23;;;1.97;;
16977;SDS011;8605;52.548;4.918;2023-09-12T18:59:57;3.35;;;1.95;;
16977;SDS011;8605;52.548;4.918;2023-09-12T19:05:00;3.63;;;2.17;;
16977;SDS011;8605;52.548;4.918;2023-09-12T19:10:05;3.03;;;2.05;;
16977;SDS011;8605;52.548;4.918;2023-09-12T19:15:13;3.90;;;2.65;;
16977;SDS011;8605;52.548;4.918;2023-09-12T19:20:17;5.50;;;3.80;;
16977;SDS011;8605;52.548;4.918;2023-09-12T19:25:20;3.30;;;2.70;;
16977;SDS011;8605;52.548;4.918;2023-09-12T19:30:25;3.90;;;2.63;;
16977;SDS011;8605;52.548;4.918;2023-09-12T19:35:27;3.40;;;2.40;;
16977;SDS011;8605;52.548;4.918;2023-09-12T19:40:30;4.03;;;2.80;;
16977;SDS011;8605;52.548;4.918;2023-09-12T19:45:35;5.00;;;2.65;;
16977;SDS011;8605;52.548;4.918;2023-09-12T19:50:40;3.35;;;2.70;;
16977;SDS011;8605;52.548;4.918;2023-09-12T19:55:49;2.97;;;2.45;;
16977;SDS011;8605;52.548;4.918;2023-09-12T20:00:56;3.33;;;2.55;;
16977;SDS011;8605;52.548;4.918;2023-09-12T20:06:00;4.33;;;2.90;;
16977;SDS011;8605;52.548;4.918;2023-09-12T20:11:06;3.83;;;2.43;;
16977;SDS011;8605;52.548;4.918;2023-09-12T20:16:14;4.07;;;2.72;;
16977;SDS011;8605;52.548;4.918;2023-09-12T20:21:17;6.03;;;3.28;;
16977;SDS011;8605;52.548;4.918;2023-09-12T20:26:20;6.38;;;3.40;;
16977;SDS011;8605;52.548;4.918;2023-09-12T20:31:25;4.60;;;3.20;;
16977;SDS011;8605;52.548;4.918;2023-09-12T20:36:28;5.27;;;3.03;;
16977;SDS011;8605;52.548;4.918;2023-09-12T20:41:31;5.53;;;3.25;;
16977;SDS011;8605;52.548;4.918;2023-09-12T20:46:35;5.60;;;2.55;;
16977;SDS011;8605;52.548;4.918;2023-09-12T20:51:39;4.70;;;2.67;;
16977;SDS011;8605;52.548;4.918;2023-09-12T20:56:46;2.42;;;2.00;;
16977;SDS011;8605;52.548;4.918;2023-09-12T21:01:51;3.15;;;2.15;;
16977;SDS011;8605;52.548;4.918;2023-09-12T21:06:55;4.38;;;2.42;;
16977;SDS011;8605;52.548;4.918;2023-09-12T21:11:58;4.00;;;2.10;;
16977;SDS011;8605;52.548;4.918;2023-09-12T21:17:08;3.40;;;2.00;;
16977;SDS011;8605;52.548;4.918;2023-09-12T21:22:11;3.40;;;2.00;;
16977;SDS011;8605;52.548;4.918;2023-09-12T21:27:14;3.45;;;1.98;;
16977;SDS011;8605;52.548;4.918;2023-09-12T21:32:19;3.92;;;2.25;;
16977;SDS011;8605;52.548;4.918;2023-09-12T21:37:22;3.38;;;2.65;;
16977;SDS011;8605;52.548;4.918;2023-09-12T21:42:24;2.33;;;2.13;;
16977;SDS011;8605;52.548;4.918;2023-09-12T21:47:29;4.05;;;2.20;;
16977;SDS011;8605;52.548;4.918;2023-09-12T21:52:32;2.88;;;2.38;;
16977;SDS011;8605;52.548;4.918;2023-09-12T21:57:35;3.43;;;1.80;;
16977;SDS011;8605;52.548;4.918;2023-09-12T22:02:39;2.90;;;2.10;;
16977;SDS011;8605;52.548;4.918;2023-09-12T22:07:42;4.33;;;2.10;;
16977;SDS011;8605;52.548;4.918;2023-09-12T22:12:46;2.42;;;1.85;;
16977;SDS011;8605;52.548;4.918;2023-09-12T22:17:50;2.90;;;1.70;;
16977;SDS011;8605;52.548;4.918;2023-09-12T22:22:53;2.63;;;1.60;;
16977;SDS011;8605;52.548;4.918;2023-09-12T22:27:56;2.28;;;1.48;;
16977;SDS011;8605;52.548;4.918;2023-09-12T22:33:01;2.42;;;1.77;;
16977;SDS011;8605;52.548;4.918;2023-09-12T22:38:05;2.00;;;1.80;;
16977;SDS011;8605;52.548;4.918;2023-09-12T22:43:08;1.97;;;1.60;;
16977;SDS011;8605;52.548;4.918;2023-09-12T22:48:12;2.38;;;1.70;;
16977;SDS011;8605;52.548;4.918;2023-09-12T22:53:17;1.70;;;1.60;;
16977;SDS011;8605;52.548;4.918;2023-09-12T22:58:19;3.58;;;1.77;;
16977;SDS011;8605;52.548;4.918;2023-09-12T23:03:24;3.00;;;1.60;;
16977;SDS011;8605;52.548;4.918;2023-09-12T23:08:27;2.70;;;1.70;;
16977;SDS011;8605;52.548;4.918;2023-09-12T23:13:30;2.10;;;1.90;;
16977;SDS011;8605;52.548;4.918;2023-09-12T23:18:34;2.22;;;1.73;;
16977;SDS011;8605;52.548;4.918;2023-09-12T23:23:37;1.80;;;1.70;;
16977;SDS011;8605;52.548;4.918;2023-09-12T23:28:40;2.88;;;2.22;;
16977;SDS011;8605;52.548;4.918;2023-09-12T23:33:44;3.13;;;1.90;;
16977;SDS011;8605;52.548;4.918;2023-09-12T23:38:48;2.88;;;2.08;;
16977;SDS011;8605;52.548;4.918;2023-09-12T23:43:50;2.37;;;2.10;;
16977;SDS011;8605;52.548;4.918;2023-09-12T23:48:55;2.50;;;1.80;;
16977;SDS011;8605;52.548;4.918;2023-09-12T23:54:00;3.65;;;2.13;;
16977;SDS011;8605;52.548;4.918;2023-09-12T23:59:03;2.88;;;1.73;;
